Time;durP1;ratioP1;P1;durP2;ratioP2;P2;SDS_P1;SDS_P2;PMS_P1;PMS_P2;Temp;Humidity;BMP_temperature;BMP_pressure;BME280_temperature;BME280_humidity;BME280_pressure;Samples;Min_cycle;Max_cycle;Signal;HPM_P1;HPM_P2
2022/07/27 00:00:14;;;;;;;6.80;1.08;;;16.00;99.90;;;;;;5076259;28;20101;-74
2022/07/27 00:02:40;;;;;;;7.93;1.20;;;16.00;99.90;;;;;;5076289;28;20071;-74
2022/07/27 00:05:06;;;;;;;8.65;1.73;;;15.90;99.90;;;;;;5076229;28;20098;-74
2022/07/27 00:07:32;;;;;;;9.45;1.48;;;15.90;99.90;;;;;;5076374;28;20505;-74
2022/07/27 00:09:57;;;;;;;8.38;1.77;;;15.90;99.90;;;;;;5076172;28;20045;-74
2022/07/27 00:12:23;;;;;;;5.57;1.92;;;16.00;99.90;;;;;;5091984;28;20055;-74
2022/07/27 00:14:49;;;;;;;5.93;0.90;;;16.00;99.90;;;;;;5076039;28;20039;-74
2022/07/27 00:17:14;;;;;;;6.68;1.40;;;15.90;99.90;;;;;;5076101;28;20106;-74
2022/07/27 00:19:40;;;;;;;8.20;2.13;;;16.00;99.90;;;;;;5074997;28;20391;-74
2022/07/27 00:22:06;;;;;;;9.18;1.23;;;16.00;99.90;;;;;;5075832;28;20053;-75
2022/07/27 00:24:31;;;;;;;7.80;1.13;;;16.00;99.90;;;;;;5076355;28;20052;-74
2022/07/27 00:26:57;;;;;;;3.47;1.10;;;16.00;99.90;;;;;;5091388;28;20044;-74
2022/07/27 00:29:22;;;;;;;4.53;0.90;;;16.00;99.90;;;;;;5075693;28;20036;-74
2022/07/27 00:31:48;;;;;;;5.75;1.15;;;16.00;99.90;;;;;;5091832;28;20052;-74
2022/07/27 00:34:14;;;;;;;5.70;0.80;;;15.90;99.90;;;;;;5091116;28;20114;-74
2022/07/27 00:36:39;;;;;;;4.57;1.48;;;15.90;99.90;;;;;;5091308;28;20048;-74
2022/07/27 00:39:05;;;;;;;5.40;1.10;;;15.90;99.90;;;;;;5075881;28;20044;-74
2022/07/27 00:41:31;;;;;;;5.50;1.10;;;15.90;99.90;;;;;;5075641;28;20036;-74
2022/07/27 00:43:58;;;;;;;3.65;0.85;;;15.90;99.90;;;;;;5074207;28;20445;-74
2022/07/27 00:46:25;;;;;;;5.57;0.98;;;15.80;99.90;;;;;;5075582;28;20124;-74
2022/07/27 00:48:52;;;;;;;5.60;0.80;;;15.80;99.90;;;;;;5075315;28;20045;-75
2022/07/27 00:51:19;;;;;;;7.85;1.55;;;15.80;99.90;;;;;;5074274;28;20064;-74
2022/07/27 00:53:47;;;;;;;8.73;1.30;;;15.80;99.90;;;;;;5075423;28;20040;-74
2022/07/27 00:56:13;;;;;;;5.97;1.00;;;15.80;99.90;;;;;;5075169;28;20438;-74
2022/07/27 00:58:39;;;;;;;5.45;1.35;;;15.90;99.90;;;;;;5074879;28;20048;-74
2022/07/27 01:01:05;;;;;;;8.27;0.95;;;15.90;99.90;;;;;;5073988;28;20036;-74
2022/07/27 01:03:31;;;;;;;5.40;1.13;;;15.90;99.90;;;;;;5075037;28;20037;-74
2022/07/27 01:05:57;;;;;;;5.40;0.90;;;15.90;99.90;;;;;;5075164;28;20094;-74
2022/07/27 01:08:23;;;;;;;9.60;1.02;;;15.90;99.90;;;;;;5074979;28;20049;-74
2022/07/27 01:10:51;;;;;;;8.15;1.38;;;15.90;99.90;;;;;;5074955;28;20109;-74
2022/07/27 01:13:17;;;;;;;8.23;1.65;;;15.80;99.90;;;;;;5090573;28;20451;-74
2022/07/27 01:15:43;;;;;;;6.32;1.20;;;15.80;99.90;;;;;;5074981;28;20036;-74
2022/07/27 01:18:31;;;;;;;12.00;2.10;;;15.80;99.90;;;;;;5074809;28;20041;-74
2022/07/27 01:20:59;;;;;;;6.93;1.20;;;15.90;99.90;;;;;;5074867;28;20089;-74
2022/07/27 01:23:25;;;;;;;7.10;1.20;;;15.90;99.90;;;;;;5073141;28;20115;-74
2022/07/27 01:25:52;;;;;;;9.90;1.45;;;15.80;99.90;;;;;;5074722;28;20086;-74
2022/07/27 01:28:18;;;;;;;6.45;1.33;;;15.80;99.90;;;;;;5090311;28;20440;-74
2022/07/27 01:30:43;;;;;;;7.40;1.30;;;15.80;99.90;;;;;;5074670;28;20535;-74
2022/07/27 01:33:09;;;;;;;10.55;1.77;;;15.80;99.90;;;;;;5074588;28;20097;-74
2022/07/27 01:35:37;;;;;;;11.10;1.52;;;15.90;99.90;;;;;;5074559;28;20389;-75
2022/07/27 01:38:03;;;;;;;5.97;1.10;;;15.90;99.90;;;;;;5074447;28;20098;-74
2022/07/27 01:40:29;;;;;;;7.93;1.15;;;15.90;99.90;;;;;;5074476;28;20040;-74
2022/07/27 01:42:55;;;;;;;6.35;1.05;;;15.90;99.90;;;;;;5090201;28;20472;-74
2022/07/27 01:45:21;;;;;;;3.90;1.08;;;15.90;99.90;;;;;;5074381;28;20053;-74
2022/07/27 01:47:47;;;;;;;6.18;1.02;;;15.90;99.90;;;;;;5074243;28;20039;-74
2022/07/27 01:50:13;;;;;;;9.48;1.20;;;15.90;99.90;;;;;;5074137;28;20553;-75
2022/07/27 01:52:38;;;;;;;9.48;1.20;;;15.90;99.90;;;;;;5074243;28;20040;-74
2022/07/27 01:55:07;;;;;;;6.90;1.05;;;15.90;99.90;;;;;;5074127;28;20044;-74
2022/07/27 01:57:32;;;;;;;7.70;1.10;;;16.00;99.90;;;;;;5074138;28;20048;-74
2022/07/27 01:59:59;;;;;;;5.70;1.02;;;15.90;99.90;;;;;;5074078;28;20036;-74
2022/07/27 02:02:24;;;;;;;7.50;1.48;;;15.90;99.90;;;;;;5074049;28;20045;-74
2022/07/27 02:04:50;;;;;;;8.68;1.08;;;15.90;99.90;;;;;;5089555;28;20044;-74
2022/07/27 02:07:15;;;;;;;9.65;1.42;;;15.90;99.90;;;;;;5089801;28;20045;-74
2022/07/27 02:09:41;;;;;;;7.57;0.98;;;15.90;99.90;;;;;;5073296;28;20040;-74
2022/07/27 02:14:54;;;;;;;6.05;1.33;;;15.90;99.90;;;;;;5073911;28;20053;-75
2022/07/27 02:17:19;;;;;;;4.72;1.00;;;16.00;99.90;;;;;;5073755;28;20518;-74
2022/07/27 02:19:45;;;;;;;9.32;1.27;;;15.90;99.90;;;;;;5072747;28;20044;-74
2022/07/27 02:22:10;;;;;;;4.47;1.00;;;16.00;99.90;;;;;;5073633;28;20530;-74
2022/07/27 02:24:36;;;;;;;5.43;0.93;;;15.90;99.90;;;;;;5072141;28;20056;-74
2022/07/27 02:27:03;;;;;;;6.65;0.98;;;15.90;99.90;;;;;;5089503;28;20124;-74
2022/07/27 02:29:29;;;;;;;7.82;1.30;;;15.90;99.90;;;;;;5073634;28;20044;-74
2022/07/27 02:31:55;;;;;;;8.80;1.20;;;15.90;99.90;;;;;;5073648;28;20055;-74
2022/07/27 02:34:21;;;;;;;12.52;1.38;;;15.90;99.90;;;;;;5073780;28;20048;-74
2022/07/27 02:36:46;;;;;;;5.97;1.10;;;15.90;99.90;;;;;;5073643;28;20097;-74
2022/07/27 02:39:12;;;;;;;6.45;1.92;;;15.80;99.90;;;;;;5073580;28;20372;-74
2022/07/27 02:41:37;;;;;;;8.07;1.00;;;15.80;99.90;;;;;;5073646;28;20460;-74
2022/07/27 02:44:03;;;;;;;7.20;1.17;;;15.80;99.90;;;;;;5073524;28;20106;-74
2022/07/27 02:46:29;;;;;;;4.63;1.13;;;15.80;99.90;;;;;;5073505;28;20450;-74
2022/07/27 02:48:55;;;;;;;4.40;1.10;;;15.70;99.90;;;;;;5073561;28;20445;-74
2022/07/27 02:51:20;;;;;;;6.10;0.80;;;15.70;99.90;;;;;;5089253;28;20052;-75
2022/07/27 02:53:46;;;;;;;4.43;0.82;;;15.70;99.90;;;;;;5073465;28;20123;-74
2022/07/27 02:56:11;;;;;;;5.15;1.20;;;15.70;99.90;;;;;;5073471;28;20048;-74
2022/07/27 02:58:37;;;;;;;11.20;1.60;;;15.80;99.90;;;;;;5073498;28;20044;-74
2022/07/27 03:01:04;;;;;;;8.10;1.45;;;15.80;99.90;;;;;;5073308;28;20388;-74
2022/07/27 03:03:29;;;;;;;10.45;1.30;;;15.80;99.90;;;;;;5073396;28;20036;-74
2022/07/27 03:05:55;;;;;;;8.63;1.10;;;15.80;99.90;;;;;;5073465;28;20377;-74
2022/07/27 03:08:21;;;;;;;5.00;1.00;;;15.80;99.90;;;;;;5073337;28;20029;-74
2022/07/27 03:10:46;;;;;;;7.53;1.63;;;15.70;99.90;;;;;;5073320;28;20044;-74
2022/07/27 03:13:12;;;;;;;6.25;0.95;;;15.70;99.90;;;;;;5073334;28;20044;-74
2022/07/27 03:15:38;;;;;;;5.05;1.27;;;15.70;99.90;;;;;;5073767;28;20036;-74
2022/07/27 03:18:03;;;;;;;5.97;1.10;;;15.70;99.90;;;;;;5073199;28;20047;-74
2022/07/27 03:20:29;;;;;;;6.30;1.17;;;15.70;99.90;;;;;;5073302;28;20040;-74
2022/07/27 03:22:55;;;;;;;9.00;1.15;;;15.70;99.90;;;;;;5076665;28;20052;-74
2022/07/27 03:25:20;;;;;;;6.00;1.20;;;15.60;99.90;;;;;;5092987;28;20102;-74
2022/07/27 03:27:46;;;;;;;5.22;1.20;;;15.60;99.90;;;;;;5092674;28;20420;-74
2022/07/27 03:30:11;;;;;;;6.22;0.90;;;15.60;99.90;;;;;;5092415;28;20101;-74
2022/07/27 03:32:37;;;;;;;9.70;1.33;;;15.60;99.90;;;;;;5077011;28;20081;-74
2022/07/27 03:35:03;;;;;;;6.47;1.42;;;15.50;99.90;;;;;;5076461;28;20045;-74
2022/07/27 03:37:29;;;;;;;4.80;1.08;;;15.50;99.90;;;;;;5091778;28;20487;-74
2022/07/27 03:39:54;;;;;;;3.95;0.90;;;15.50;99.90;;;;;;5076356;28;20093;-74
2022/07/27 03:42:20;;;;;;;5.50;1.20;;;15.50;99.90;;;;;;5075856;28;20403;-74
2022/07/27 03:44:45;;;;;;;9.00;1.65;;;15.60;99.90;;;;;;5091001;28;20044;-74
2022/07/27 03:47:11;;;;;;;6.97;1.10;;;15.70;99.90;;;;;;5074546;28;20040;-74
2022/07/27 03:49:37;;;;;;;7.50;1.50;;;15.70;99.90;;;;;;5076027;28;20462;-74
2022/07/27 03:52:03;;;;;;;10.43;1.40;;;15.60;99.90;;;;;;5075731;28;20052;-74
2022/07/27 03:54:28;;;;;;;6.45;1.60;;;15.60;99.90;;;;;;5074429;28;20052;-74
2022/07/27 03:56:54;;;;;;;10.02;1.60;;;15.60;99.90;;;;;;5075880;28;20046;-74
2022/07/27 03:59:19;;;;;;;5.38;1.42;;;15.30;99.90;;;;;;5075740;28;20044;-74
2022/07/27 04:01:45;;;;;;;8.30;1.65;;;15.30;99.90;;;;;;5075079;28;20048;-74
2022/07/27 04:04:11;;;;;;;5.72;1.95;;;15.10;99.90;;;;;;5074915;28;20049;-74
2022/07/27 04:06:36;;;;;;;5.78;1.35;;;15.10;99.90;;;;;;5091907;28;20044;-74
2022/07/27 04:09:02;;;;;;;5.85;1.60;;;15.10;99.90;;;;;;5076123;28;20040;-74
2022/07/27 04:11:28;;;;;;;6.80;1.50;;;15.10;99.90;;;;;;5075851;28;20044;-74
2022/07/27 04:13:54;;;;;;;6.47;1.50;;;15.10;99.90;;;;;;5076120;28;20040;-74
2022/07/27 04:16:19;;;;;;;6.38;1.35;;;15.10;99.90;;;;;;5091453;28;20479;-74
2022/07/27 04:18:45;;;;;;;10.13;1.63;;;15.10;99.90;;;;;;5076054;28;20041;-75
2022/07/27 04:21:12;;;;;;;8.82;1.48;;;15.10;99.90;;;;;;5091603;28;20541;-74
2022/07/27 04:23:38;;;;;;;6.38;1.65;;;15.00;99.90;;;;;;5075638;28;20067;-74
2022/07/27 04:26:03;;;;;;;9.73;1.30;;;15.00;99.90;;;;;;5091307;28;20044;-74
2022/07/27 04:28:29;;;;;;;4.88;1.52;;;15.00;99.90;;;;;;5074449;28;20054;-74
2022/07/27 04:30:54;;;;;;;7.78;1.77;;;15.00;99.90;;;;;;5075619;28;20037;-74
2022/07/27 04:33:20;;;;;;;7.03;1.40;;;15.00;99.90;;;;;;5090664;28;20037;-74
2022/07/27 04:35:46;;;;;;;9.85;1.38;;;15.10;99.90;;;;;;5075751;28;20060;-74
2022/07/27 04:38:11;;;;;;;6.43;1.20;;;15.10;99.90;;;;;;5091347;28;20089;-74
2022/07/27 04:40:37;;;;;;;7.15;1.25;;;15.10;99.90;;;;;;5075269;28;20045;-74
2022/07/27 04:43:04;;;;;;;6.70;1.30;;;15.20;99.90;;;;;;5075378;28;20444;-74
2022/07/27 04:45:30;;;;;;;6.95;1.10;;;15.30;99.90;;;;;;5075312;28;20048;-74
2022/07/27 04:47:56;;;;;;;5.45;1.23;;;15.40;99.90;;;;;;5075539;28;20037;-74
2022/07/27 04:50:21;;;;;;;5.28;1.50;;;15.40;99.90;;;;;;5075439;28;20102;-74
2022/07/27 04:52:47;;;;;;;7.18;1.23;;;15.40;99.90;;;;;;5075031;28;20145;-74
2022/07/27 04:55:13;;;;;;;3.50;0.80;;;15.50;99.90;;;;;;5075161;28;20084;-74
2022/07/27 04:57:41;;;;;;;4.53;1.00;;;15.50;99.90;;;;;;5075091;28;20097;-74
2022/07/27 05:00:08;;;;;;;7.10;1.08;;;15.50;99.90;;;;;;5074058;28;20047;-74
2022/07/27 05:02:39;;;;;;;5.35;1.15;;;15.50;99.90;;;;;;5090561;28;20045;-75
2022/07/27 05:05:06;;;;;;;7.07;1.38;;;15.60;99.90;;;;;;5090759;28;20132;-74
2022/07/27 05:07:31;;;;;;;6.03;1.20;;;15.60;99.90;;;;;;5075138;28;20047;-74
2022/07/27 05:09:57;;;;;;;3.42;0.85;;;15.70;99.90;;;;;;5074720;28;20044;-74
2022/07/27 05:12:23;;;;;;;10.77;1.23;;;15.70;99.90;;;;;;5074963;28;20036;-74
2022/07/27 05:14:48;;;;;;;7.85;1.33;;;15.80;99.90;;;;;;5073425;28;20079;-74
2022/07/27 05:17:14;;;;;;;11.23;1.35;;;15.80;99.90;;;;;;5090285;28;20175;-74
2022/07/27 05:19:40;;;;;;;6.50;1.50;;;15.90;99.90;;;;;;5074808;28;20040;-74
2022/07/27 05:22:05;;;;;;;5.75;0.77;;;16.00;99.90;;;;;;5074374;28;20068;-75
2022/07/27 05:24:31;;;;;;;5.50;0.80;;;16.00;99.90;;;;;;5073252;28;20048;-74
2022/07/27 05:26:56;;;;;;;6.57;1.65;;;16.10;99.90;;;;;;5074478;28;20048;-75
2022/07/27 05:29:22;;;;;;;11.60;1.30;;;16.10;99.90;;;;;;5074360;28;20531;-74
2022/07/27 05:31:48;;;;;;;4.20;1.20;;;16.20;99.90;;;;;;5090215;28;20110;-74
2022/07/27 05:34:13;;;;;;;8.48;1.80;;;16.30;99.90;;;;;;5073094;28;20080;-74
2022/07/27 05:36:39;;;;;;;5.53;1.30;;;16.40;99.90;;;;;;5074306;28;20040;-75
2022/07/27 05:39:04;;;;;;;6.57;1.20;;;16.40;99.90;;;;;;5074440;28;20384;-74
2022/07/27 05:41:30;;;;;;;7.53;1.10;;;16.50;99.90;;;;;;5074271;28;20115;-74
2022/07/27 05:43:56;;;;;;;10.13;1.25;;;16.60;99.90;;;;;;5089857;28;20056;-74
2022/07/27 05:46:22;;;;;;;4.05;1.35;;;16.80;99.90;;;;;;5072872;28;20044;-75
2022/07/27 05:48:48;;;;;;;6.35;1.30;;;16.90;99.90;;;;;;5074225;28;20048;-74
2022/07/27 05:51:14;;;;;;;6.32;1.00;;;17.00;99.90;;;;;;5074226;28;20044;-74
2022/07/27 05:53:40;;;;;;;5.45;1.08;;;17.10;99.90;;;;;;5074147;28;20072;-74
2022/07/27 05:56:09;;;;;;;8.50;1.05;;;17.20;99.90;;;;;;5074188;28;20043;-74
2022/07/27 05:58:35;;;;;;;7.40;1.00;;;17.30;99.90;;;;;;5090047;28;20060;-74
2022/07/27 06:01:00;;;;;;;5.75;1.40;;;17.40;99.90;;;;;;5074131;28;20037;-74
2022/07/27 06:03:26;;;;;;;7.70;1.20;;;17.50;99.90;;;;;;5073967;28;20071;-75
2022/07/27 06:07:57;;;;;;;7.60;1.58;;;17.60;99.90;;;;;;5072528;28;20045;-75
2022/07/27 06:08:37;;;;;;;3.97;1.05;;;17.70;99.90;;;;;;5089392;28;20049;-75
2022/07/27 06:11:03;;;;;;;10.68;1.20;;;17.70;99.90;;;;;;5089485;28;20057;-74
2022/07/27 06:13:30;;;;;;;8.02;1.20;;;17.90;99.90;;;;;;5089523;28;20127;-75
2022/07/27 06:15:56;;;;;;;7.72;1.30;;;17.90;99.90;;;;;;5073664;28;20070;-75
2022/07/27 06:18:21;;;;;;;9.18;1.27;;;18.00;99.90;;;;;;5089208;28;20041;-75
2022/07/27 06:20:47;;;;;;;8.65;1.15;;;18.20;99.90;;;;;;5073814;28;20040;-75
2022/07/27 06:23:16;;;;;;;4.47;1.00;;;18.40;99.90;;;;;;5089054;28;20404;-74
2022/07/27 06:25:41;;;;;;;7.28;1.58;;;18.60;99.90;;;;;;5073803;28;20499;-74
2022/07/27 06:28:08;;;;;;;9.05;1.10;;;18.60;99.90;;;;;;5073408;28;20080;-75
2022/07/27 06:30:34;;;;;;;6.50;1.92;;;18.40;99.90;;;;;;5073387;28;20079;-75
2022/07/27 06:33:03;;;;;;;5.18;1.23;;;18.30;99.90;;;;;;5072464;28;20049;-75
2022/07/27 06:35:29;;;;;;;8.15;1.33;;;18.30;99.90;;;;;;5073607;28;20119;-75
2022/07/27 06:37:54;;;;;;;4.10;0.98;;;18.10;99.90;;;;;;5089243;28;20082;-75
2022/07/27 06:40:20;;;;;;;6.07;1.63;;;18.00;99.90;;;;;;5073524;28;20045;-74
2022/07/27 06:42:45;;;;;;;8.85;1.52;;;17.90;99.90;;;;;;5073496;28;20036;-74
2022/07/27 06:45:11;;;;;;;11.02;2.00;;;17.70;99.90;;;;;;5073527;28;20466;-74
2022/07/27 06:47:39;;;;;;;10.88;1.60;;;17.30;99.90;;;;;;5073598;28;20036;-74
2022/07/27 06:50:05;;;;;;;10.10;1.70;;;17.10;99.90;;;;;;5077602;28;20438;-73
2022/07/27 06:52:31;;;;;;;8.60;1.90;;;16.90;99.90;;;;;;5078388;28;20087;-73
2022/07/27 06:54:56;;;;;;;10.90;1.80;;;16.70;99.90;;;;;;5073005;28;20111;-72
2022/07/27 06:57:22;;;;;;;7.78;1.50;;;16.40;99.90;;;;;;5076491;28;20535;-73
2022/07/27 06:59:49;;;;;;;7.55;1.65;;;16.10;99.90;;;;;;5077063;28;20037;-73
2022/07/27 07:02:18;;;;;;;3.78;1.20;;;16.00;99.90;;;;;;5076175;28;20048;-73
2022/07/27 07:04:44;;;;;;;4.00;1.27;;;15.80;99.90;;;;;;5077269;28;20048;-72
2022/07/27 07:07:10;;;;;;;6.50;1.73;;;15.70;99.90;;;;;;5076930;28;20388;-72
2022/07/27 07:09:36;;;;;;;6.63;1.23;;;15.60;99.90;;;;;;5076997;28;20044;-73
2022/07/27 07:12:01;;;;;;;4.10;1.10;;;15.50;99.90;;;;;;5076829;28;20048;-73
2022/07/27 07:14:27;;;;;;;4.72;1.10;;;15.40;99.90;;;;;;5075682;28;20056;-74
2022/07/27 07:16:53;;;;;;;3.40;1.17;;;15.30;99.90;;;;;;5075485;28;20075;-75
2022/07/27 07:19:19;;;;;;;6.32;1.60;;;15.40;99.90;;;;;;5076894;28;20049;-75
2022/07/27 07:21:45;;;;;;;6.82;1.33;;;15.50;99.90;;;;;;5075440;28;20415;-74
2022/07/27 07:24:11;;;;;;;9.18;1.75;;;15.50;99.90;;;;;;5076511;28;20110;-74
2022/07/27 07:26:38;;;;;;;4.95;1.67;;;15.60;99.90;;;;;;5076893;28;20046;-75
2022/07/27 07:29:04;;;;;;;9.32;1.60;;;15.60;99.90;;;;;;5076465;28;20048;-74
2022/07/27 07:31:29;;;;;;;9.38;1.70;;;15.70;99.90;;;;;;5076819;28;20094;-75
2022/07/27 07:33:56;;;;;;;7.90;1.77;;;15.80;99.90;;;;;;5075424;28;20422;-74
2022/07/27 07:36:22;;;;;;;8.73;1.77;;;16.00;99.90;;;;;;5075447;28;20040;-75
2022/07/27 07:38:48;;;;;;;9.38;1.63;;;16.10;99.90;;;;;;5076680;28;20437;-75
2022/07/27 07:41:13;;;;;;;7.38;1.80;;;16.20;99.90;;;;;;5076260;28;20086;-75
2022/07/27 07:43:40;;;;;;;9.50;1.88;;;16.30;99.90;;;;;;5076160;28;20057;-75
2022/07/27 07:46:07;;;;;;;7.03;1.63;;;16.50;99.90;;;;;;5076466;28;20041;-75
2022/07/27 07:48:33;;;;;;;15.80;2.10;;;16.60;99.90;;;;;;5075036;28;20127;-75
2022/07/27 07:51:00;;;;;;;8.35;2.45;;;16.80;99.90;;;;;;5084336;28;20078;-75
2022/07/27 07:53:25;;;;;;;6.93;1.55;;;17.00;99.90;;;;;;5078150;28;20045;-78
2022/07/27 07:55:54;;;;;;;7.90;1.70;;;17.10;99.90;;;;;;5076350;28;20048;-75
2022/07/27 07:58:20;;;;;;;5.60;1.15;;;17.10;99.90;;;;;;5075934;28;20056;-75
2022/07/27 08:00:46;;;;;;;5.30;1.40;;;17.10;99.90;;;;;;5074809;28;20052;-75
2022/07/27 08:03:12;;;;;;;5.32;1.52;;;17.00;99.90;;;;;;5075856;28;20051;-76
2022/07/27 08:05:38;;;;;;;3.65;1.20;;;17.00;99.90;;;;;;5090744;28;20403;-76
2022/07/27 08:08:04;;;;;;;3.63;1.10;;;17.10;99.90;;;;;;5093350;28;20061;-76
2022/07/27 08:10:29;;;;;;;3.33;1.10;;;17.10;99.90;;;;;;5095071;28;20133;-75
2022/07/27 08:12:55;;;;;;;6.35;1.00;;;17.10;99.90;;;;;;5094681;28;20147;-75
2022/07/27 08:15:22;;;;;;;6.10;1.75;;;17.20;99.90;;;;;;5095926;28;20578;-76
2022/07/27 08:17:48;;;;;;;6.32;1.17;;;17.30;99.90;;;;;;5094913;28;20040;-75
2022/07/27 08:20:15;;;;;;;4.60;1.30;;;17.30;99.90;;;;;;5091427;28;20063;-75
2022/07/27 08:22:42;;;;;;;3.75;1.23;;;17.50;99.90;;;;;;5083028;28;20570;-76
2022/07/27 08:25:08;;;;;;;5.80;1.20;;;17.50;99.90;;;;;;5075445;28;20569;-75
2022/07/27 08:27:34;;;;;;;7.30;1.45;;;17.60;99.90;;;;;;5075599;28;20521;-76
2022/07/27 08:30:00;;;;;;;4.47;1.25;;;17.70;99.90;;;;;;5076601;28;20122;-76
2022/07/27 08:32:27;;;;;;;4.57;0.90;;;17.80;99.90;;;;;;5093773;28;20068;-76
2022/07/27 08:34:54;;;;;;;5.68;1.30;;;17.90;99.90;;;;;;5091348;28;20058;-76
2022/07/27 08:37:19;;;;;;;5.82;1.20;;;18.00;99.90;;;;;;5095360;28;20433;-76
2022/07/27 08:39:45;;;;;;;7.07;1.15;;;18.10;99.90;;;;;;5095250;28;20036;-76
2022/07/27 08:42:10;;;;;;;3.17;1.25;;;18.10;99.90;;;;;;5094140;28;20047;-76
2022/07/27 08:44:40;;;;;;;4.97;1.00;;;18.40;99.90;;;;;;5094075;28;20040;-76
2022/07/27 08:47:08;;;;;;;5.07;0.98;;;18.70;99.90;;;;;;5094172;28;20051;-76
2022/07/27 08:49:36;;;;;;;6.22;1.13;;;18.80;99.90;;;;;;5093411;28;20052;-76
2022/07/27 08:52:03;;;;;;;6.43;1.10;;;18.90;99.90;;;;;;5086156;28;20072;-76
2022/07/27 08:54:30;;;;;;;6.15;1.10;;;19.00;99.90;;;;;;5073714;28;20053;-76
2022/07/27 08:56:55;;;;;;;4.97;1.02;;;19.20;99.90;;;;;;5075268;28;20072;-76
2022/07/27 08:59:21;;;;;;;3.97;0.98;;;19.20;99.90;;;;;;5075004;28;20462;-76
2022/07/27 09:01:47;;;;;;;4.78;1.25;;;19.40;99.90;;;;;;5084698;28;20044;-76
2022/07/27 09:04:12;;;;;;;8.63;1.08;;;19.60;99.90;;;;;;5094257;28;20047;-76
2022/07/27 09:06:47;;;;;;;5.10;1.08;;;19.70;99.90;;;;;;5093359;28;20463;-76
2022/07/27 09:09:14;;;;;;;4.10;1.00;;;19.90;99.90;;;;;;5094970;28;20093;-76
2022/07/27 09:11:40;;;;;;;3.40;1.10;;;20.20;99.90;;;;;;5095177;28;20044;-76
2022/07/27 09:14:10;;;;;;;5.40;1.13;;;20.30;99.90;;;;;;5093548;28;20087;-77
2022/07/27 09:16:36;;;;;;;3.28;1.00;;;20.50;99.90;;;;;;5094695;28;20192;-76
2022/07/27 09:19:04;;;;;;;8.75;0.93;;;20.60;99.90;;;;;;5094689;28;20487;-76
2022/07/27 09:21:30;;;;;;;5.75;0.90;;;20.70;99.90;;;;;;5091205;28;20050;-76
2022/07/27 09:24:06;;;;;;;10.95;1.10;;;20.70;99.90;;;;;;5094262;28;20052;-76
2022/07/27 09:26:32;;;;;;;4.53;0.85;;;20.70;99.90;;;;;;5093315;28;20119;-76
2022/07/27 09:29:18;;;;;;;3.28;0.80;;;21.00;99.90;;;;;;5093570;28;20165;-76
2022/07/27 09:31:46;;;;;;;3.50;0.95;;;21.10;99.90;;;;;;5090513;28;20028;-76
2022/07/27 09:34:24;;;;;;;4.07;1.10;;;21.20;99.90;;;;;;5093796;28;20115;-77
2022/07/27 09:36:54;;;;;;;5.97;1.02;;;21.20;99.90;;;;;;5094109;28;20115;-77
2022/07/27 09:39:21;;;;;;;5.78;0.90;;;21.30;99.90;;;;;;5093840;28;20482;-77
2022/07/27 09:41:52;;;;;;;7.88;1.10;;;21.30;99.90;;;;;;5093031;28;20131;-76
2022/07/27 09:44:34;;;;;;;5.60;1.20;;;21.20;99.90;;;;;;5094108;28;20540;-76
2022/07/27 09:47:00;;;;;;;4.10;0.80;;;21.50;99.90;;;;;;5094288;28;20556;-77
2022/07/27 09:49:27;;;;;;;5.07;1.00;;;21.50;99.90;;;;;;5093142;28;20048;-77
2022/07/27 09:51:55;;;;;;;4.47;0.80;;;21.40;99.90;;;;;;5086817;28;20047;-76
2022/07/27 09:54:21;;;;;;;4.05;0.95;;;21.40;99.90;;;;;;5072612;28;20053;-76
2022/07/27 09:57:00;;;;;;;6.22;0.80;;;21.60;99.90;;;;;;5073684;28;20499;-76
2022/07/27 09:59:27;;;;;;;3.80;0.90;;;21.70;99.90;;;;;;5073772;28;20399;-77
2022/07/27 10:01:54;;;;;;;4.57;0.90;;;21.70;99.90;;;;;;5085134;28;20043;-77
2022/07/27 10:04:21;;;;;;;4.78;0.75;;;21.90;99.90;;;;;;5073836;28;20055;-77
2022/07/27 10:06:46;;;;;;;2.92;0.85;;;21.80;99.90;;;;;;5072443;28;20086;-77
2022/07/27 10:09:13;;;;;;;4.72;0.90;;;21.80;99.90;;;;;;5073543;28;20123;-77
2022/07/27 10:11:39;;;;;;;5.93;1.35;;;22.10;99.90;;;;;;5078305;28;20047;-76
2022/07/27 10:14:05;;;;;;;3.22;0.85;;;22.30;99.90;;;;;;5093336;28;20044;-77
2022/07/27 10:16:35;;;;;;;3.33;0.50;;;22.30;99.90;;;;;;5093933;28;20081;-76
2022/07/27 10:19:09;;;;;;;6.65;1.08;;;22.40;99.90;;;;;;5092406;28;20044;-76
2022/07/27 10:21:39;;;;;;;2.75;0.47;;;22.50;99.90;;;;;;5103152;28;20052;-76
2022/07/27 10:24:07;;;;;;;4.90;0.85;;;22.60;99.90;;;;;;5074580;28;20095;-76
2022/07/27 10:26:41;;;;;;;4.18;0.77;;;22.30;99.90;;;;;;5073639;28;20084;-77
2022/07/27 10:29:13;;;;;;;2.72;0.65;;;22.30;99.90;;;;;;5072400;28;20541;-76
2022/07/27 10:31:59;;;;;;;7.87;0.97;;;22.50;99.90;;;;;;5070509;28;20123;-76
2022/07/27 10:34:40;;;;;;;3.42;0.55;;;22.50;99.90;;;;;;5071284;28;20322;-76
2022/07/27 10:37:11;;;;;;;3.50;0.68;;;22.50;99.90;;;;;;5072020;28;20496;-76
2022/07/27 10:39:39;;;;;;;4.47;0.93;;;22.50;99.90;;;;;;5073698;28;20063;-76
2022/07/27 10:42:16;;;;;;;4.75;0.60;;;22.30;99.90;;;;;;5073525;28;20052;-76
2022/07/27 10:45:00;;;;;;;3.08;0.70;;;22.10;99.90;;;;;;5071813;28;20049;-76
2022/07/27 10:47:29;;;;;;;3.72;0.60;;;22.10;99.90;;;;;;5072275;28;20060;-76
2022/07/27 10:50:28;;;;;;;3.97;0.95;;;21.70;99.90;;;;;;5073124;28;20049;-76
2022/07/27 10:52:57;;;;;;;5.03;0.50;;;21.90;99.90;;;;;;5049918;28;20585;-76
2022/07/27 10:55:32;;;;;;;3.08;0.60;;;22.20;99.90;;;;;;5071838;28;20522;-76
2022/07/27 10:58:13;;;;;;;3.80;0.70;;;22.40;99.90;;;;;;5071823;28;20052;-76
2022/07/27 11:00:48;;;;;;;5.90;0.70;;;22.50;99.90;;;;;;5073044;28;20047;-76
2022/07/27 11:03:21;;;;;;;5.43;1.23;;;22.50;99.90;;;;;;5072877;28;20399;-77
2022/07/27 11:06:24;;;;;;;4.50;0.80;;;22.50;99.90;;;;;;5073423;28;20050;-79
2022/07/27 11:08:50;;;;;;;;;;;22.60;99.90;;;;;;5072212;28;20045;-77
2022/07/27 11:11:21;;;;;;;2.85;0.70;;;22.60;99.90;;;;;;5073181;28;19920;-76
2022/07/27 11:13:53;;;;;;;4.45;1.17;;;22.60;99.90;;;;;;5072914;28;20045;-77
2022/07/27 11:16:20;;;;;;;4.00;1.13;;;22.60;99.90;;;;;;5073086;28;20043;-77
2022/07/27 11:19:02;;;;;;;5.65;0.90;;;22.90;99.90;;;;;;5072730;28;20118;-77
2022/07/27 11:21:33;;;;;;;4.57;1.00;;;23.10;99.90;;;;;;5072840;28;20400;-76
2022/07/27 11:24:02;;;;;;;8.50;0.88;;;22.90;99.90;;;;;;5072636;28;20091;-77
2022/07/27 11:26:30;;;;;;;4.13;0.70;;;22.60;99.90;;;;;;5073017;28;20560;-77
2022/07/27 11:28:56;;;;;;;3.85;0.70;;;22.50;99.90;;;;;;5071502;28;20522;-77
2022/07/27 11:31:22;;;;;;;7.40;1.83;;;22.40;99.90;;;;;;5071551;28;20485;-76
2022/07/27 11:33:56;;;;;;;7.38;0.88;;;22.40;99.90;;;;;;5072793;28;20044;-76
2022/07/27 11:36:33;;;;;;;3.92;0.95;;;22.30;99.90;;;;;;5073053;28;20056;-79
2022/07/27 11:38:58;;;;;;;4.90;0.80;;;22.10;99.90;;;;;;5072874;28;20067;-76
2022/07/27 11:41:29;;;;;;;7.10;0.73;;;22.20;99.90;;;;;;5072904;28;20387;-80
2022/07/27 11:44:01;;;;;;;4.55;0.60;;;22.50;99.90;;;;;;5075244;28;20475;-76
2022/07/27 11:46:30;;;;;;;2.72;0.70;;;22.70;99.90;;;;;;5075000;28;20158;-77
2022/07/27 11:48:55;;;;;;;4.43;0.63;;;23.00;99.90;;;;;;5074997;28;20044;-76
2022/07/27 11:51:22;;;;;;;6.97;1.05;;;23.00;99.90;;;;;;5076011;28;20060;-76
2022/07/27 11:53:54;;;;;;;2.75;0.70;;;23.00;99.90;;;;;;5074995;28;20044;-76
2022/07/27 11:56:21;;;;;;;5.10;1.02;;;22.90;99.90;;;;;;5076347;28;20044;-76
2022/07/27 11:59:20;;;;;;;7.63;1.38;;;22.90;99.90;;;;;;5076432;28;20048;-76
2022/07/27 12:01:48;;;;;;;7.03;1.00;;;22.50;99.90;;;;;;5068041;28;20067;-76
2022/07/27 12:04:26;;;;;;;4.47;0.88;;;22.40;99.90;;;;;;5076145;28;20101;-76
2022/07/27 12:07:06;;;;;;;5.90;0.75;;;22.20;99.90;;;;;;5076207;28;20056;-76
2022/07/27 12:09:34;;;;;;;2.78;0.88;;;22.20;99.90;;;;;;5075972;28;20055;-76
2022/07/27 12:12:09;;;;;;;6.18;0.85;;;21.90;99.90;;;;;;5074794;28;20040;-76
2022/07/27 12:14:44;;;;;;;4.00;0.75;;;22.40;99.90;;;;;;5076057;28;20044;-77
2022/07/27 12:17:26;;;;;;;6.32;1.02;;;22.60;99.90;;;;;;5074554;28;20104;-77
2022/07/27 12:20:04;;;;;;;3.80;1.00;;;22.70;99.90;;;;;;5074692;28;20076;-76
2022/07/27 12:22:38;;;;;;;4.65;0.90;;;22.80;99.90;;;;;;5075662;28;20128;-75
2022/07/27 12:25:15;;;;;;;21.67;1.42;;;22.70;99.90;;;;;;5074327;28;20059;-76
2022/07/27 12:27:53;;;;;;;5.45;0.82;;;22.80;99.90;;;;;;5074267;28;20045;-76
2022/07/27 12:30:30;;;;;;;10.13;1.20;;;22.80;99.90;;;;;;5074384;28;20044;-76
2022/07/27 12:32:56;;;;;;;7.53;0.80;;;22.80;99.90;;;;;;5075335;28;20380;-76
2022/07/27 12:35:24;;;;;;;4.18;1.02;;;22.60;99.90;;;;;;5074703;28;20472;-75
2022/07/27 12:37:58;;;;;;;3.92;1.00;;;22.50;99.90;;;;;;5075354;28;20098;-76
2022/07/27 12:40:23;;;;;;;5.60;1.10;;;22.50;99.90;;;;;;5075417;28;20068;-76
2022/07/27 12:43:05;;;;;;;6.85;0.93;;;22.70;99.90;;;;;;5075257;28;20075;-76
2022/07/27 12:45:37;;;;;;;3.33;0.68;;;22.60;99.90;;;;;;5075203;28;20116;-78
2022/07/27 12:48:16;;;;;;;4.88;1.10;;;22.70;99.90;;;;;;5074096;28;20127;-76
2022/07/27 12:50:44;;;;;;;6.95;0.93;;;22.60;99.90;;;;;;5075417;28;20045;-76